sensor_id;sensor_type;location;lat;lon;timestamp;P1;durP1;ratioP1;P2;durP2;ratioP2
7969;SDS011;4030;52.362;9.206;2024-03-02T00:02:44;2.80;;;2.60;;
7969;SDS011;4030;52.362;9.206;2024-03-02T00:05:28;2.47;;;2.28;;
7969;SDS011;4030;52.362;9.206;2024-03-02T00:07:55;2.53;;;2.33;;
7969;SDS011;4030;52.362;9.206;2024-03-02T00:10:24;2.78;;;2.53;;
7969;SDS011;4030;52.362;9.206;2024-03-02T00:12:57;2.90;;;2.60;;
7969;SDS011;4030;52.362;9.206;2024-03-02T00:18:07;2.95;;;2.65;;
7969;SDS011;4030;52.362;9.206;2024-03-02T00:20:37;3.47;;;2.80;;
7969;SDS011;4030;52.362;9.206;2024-03-02T00:23:08;3.10;;;2.80;;
7969;SDS011;4030;52.362;9.206;2024-03-02T00:25:42;2.40;;;2.13;;
7969;SDS011;4030;52.362;9.206;2024-03-02T00:28:13;3.50;;;2.90;;
7969;SDS011;4030;52.362;9.206;2024-03-02T00:30:52;2.65;;;2.40;;
7969;SDS011;4030;52.362;9.206;2024-03-02T00:33:26;2.53;;;2.33;;
7969;SDS011;4030;52.362;9.206;2024-03-02T00:35:54;3.20;;;2.90;;
7969;SDS011;4030;52.362;9.206;2024-03-02T00:38:20;2.60;;;2.40;;
7969;SDS011;4030;52.362;9.206;2024-03-02T00:40:45;2.60;;;2.40;;
7969;SDS011;4030;52.362;9.206;2024-03-02T00:46:05;2.60;;;2.38;;
7969;SDS011;4030;52.362;9.206;2024-03-02T00:48:31;2.50;;;2.30;;
7969;SDS011;4030;52.362;9.206;2024-03-02T00:51:00;2.70;;;2.50;;
7969;SDS011;4030;52.362;9.206;2024-03-02T00:53:30;3.10;;;2.80;;
7969;SDS011;4030;52.362;9.206;2024-03-02T00:55:57;3.08;;;2.78;;
7969;SDS011;4030;52.362;9.206;2024-03-02T00:58:24;2.65;;;2.45;;
7969;SDS011;4030;52.362;9.206;2024-03-02T01:00:50;3.40;;;3.10;;
7969;SDS011;4030;52.362;9.206;2024-03-02T01:03:16;2.70;;;2.50;;
7969;SDS011;4030;52.362;9.206;2024-03-02T01:05:42;3.10;;;2.60;;
7969;SDS011;4030;52.362;9.206;2024-03-02T01:08:08;3.20;;;2.90;;
7969;SDS011;4030;52.362;9.206;2024-03-02T01:10:35;2.67;;;2.47;;
7969;SDS011;4030;52.362;9.206;2024-03-02T01:13:01;4.22;;;2.83;;
7969;SDS011;4030;52.362;9.206;2024-03-02T01:15:26;3.15;;;2.85;;
7969;SDS011;4030;52.362;9.206;2024-03-02T01:17:52;3.60;;;3.03;;
7969;SDS011;4030;52.362;9.206;2024-03-02T01:20:18;3.20;;;2.90;;
7969;SDS011;4030;52.362;9.206;2024-03-02T01:22:43;3.40;;;3.10;;
7969;SDS011;4030;52.362;9.206;2024-03-02T01:25:09;3.25;;;2.78;;
7969;SDS011;4030;52.362;9.206;2024-03-02T01:27:35;3.38;;;3.05;;
7969;SDS011;4030;52.362;9.206;2024-03-02T01:30:00;3.78;;;2.70;;
7969;SDS011;4030;52.362;9.206;2024-03-02T01:32:26;2.80;;;2.60;;
7969;SDS011;4030;52.362;9.206;2024-03-02T01:34:52;3.60;;;2.85;;
7969;SDS011;4030;52.362;9.206;2024-03-02T01:37:18;3.20;;;2.63;;
7969;SDS011;4030;52.362;9.206;2024-03-02T01:39:43;3.00;;;2.70;;
7969;SDS011;4030;52.362;9.206;2024-03-02T01:42:09;3.20;;;2.90;;
7969;SDS011;4030;52.362;9.206;2024-03-02T01:44:35;3.38;;;2.90;;
7969;SDS011;4030;52.362;9.206;2024-03-02T01:47:01;2.95;;;2.53;;
7969;SDS011;4030;52.362;9.206;2024-03-02T01:49:27;3.95;;;2.88;;
7969;SDS011;4030;52.362;9.206;2024-03-02T01:51:53;3.28;;;2.78;;
7969;SDS011;4030;52.362;9.206;2024-03-02T01:54:18;3.20;;;2.90;;
7969;SDS011;4030;52.362;9.206;2024-03-02T01:56:44;3.20;;;2.75;;
7969;SDS011;4030;52.362;9.206;2024-03-02T01:59:10;3.63;;;2.92;;
7969;SDS011;4030;52.362;9.206;2024-03-02T02:01:36;3.20;;;2.90;;
7969;SDS011;4030;52.362;9.206;2024-03-02T02:04:02;3.20;;;2.90;;
7969;SDS011;4030;52.362;9.206;2024-03-02T02:06:28;2.92;;;2.72;;
7969;SDS011;4030;52.362;9.206;2024-03-02T02:08:53;3.35;;;3.05;;
7969;SDS011;4030;52.362;9.206;2024-03-02T02:11:19;4.05;;;3.20;;
7969;SDS011;4030;52.362;9.206;2024-03-02T02:13:45;3.28;;;2.97;;
7969;SDS011;4030;52.362;9.206;2024-03-02T02:16:11;3.45;;;3.10;;
7969;SDS011;4030;52.362;9.206;2024-03-02T02:18:36;3.30;;;3.00;;
7969;SDS011;4030;52.362;9.206;2024-03-02T02:21:02;3.90;;;3.15;;
7969;SDS011;4030;52.362;9.206;2024-03-02T02:23:28;3.40;;;3.10;;
7969;SDS011;4030;52.362;9.206;2024-03-02T02:25:54;3.20;;;2.90;;
7969;SDS011;4030;52.362;9.206;2024-03-02T02:28:20;3.20;;;2.90;;
7969;SDS011;4030;52.362;9.206;2024-03-02T02:30:45;2.90;;;2.60;;
7969;SDS011;4030;52.362;9.206;2024-03-02T02:33:11;3.30;;;3.00;;
7969;SDS011;4030;52.362;9.206;2024-03-02T02:35:37;3.53;;;3.22;;
7969;SDS011;4030;52.362;9.206;2024-03-02T02:38:02;3.40;;;3.10;;
7969;SDS011;4030;52.362;9.206;2024-03-02T02:40:28;3.28;;;2.97;;
7969;SDS011;4030;52.362;9.206;2024-03-02T02:42:55;3.47;;;3.17;;
7969;SDS011;4030;52.362;9.206;2024-03-02T02:45:24;4.05;;;3.35;;
7969;SDS011;4030;52.362;9.206;2024-03-02T02:47:50;3.65;;;3.35;;
7969;SDS011;4030;52.362;9.206;2024-03-02T02:50:16;3.60;;;3.30;;
7969;SDS011;4030;52.362;9.206;2024-03-02T02:52:42;3.63;;;3.33;;
7969;SDS011;4030;52.362;9.206;2024-03-02T02:55:09;3.35;;;3.03;;
7969;SDS011;4030;52.362;9.206;2024-03-02T02:57:36;3.53;;;3.22;;
7969;SDS011;4030;52.362;9.206;2024-03-02T03:00:05;3.78;;;3.22;;
7969;SDS011;4030;52.362;9.206;2024-03-02T03:02:38;3.60;;;3.30;;
7969;SDS011;4030;52.362;9.206;2024-03-02T03:05:07;3.55;;;3.20;;
7969;SDS011;4030;52.362;9.206;2024-03-02T03:07:35;3.53;;;3.22;;
7969;SDS011;4030;52.362;9.206;2024-03-02T03:10:01;3.45;;;3.15;;
7969;SDS011;4030;52.362;9.206;2024-03-02T03:12:28;3.05;;;2.75;;
7969;SDS011;4030;52.362;9.206;2024-03-02T03:14:54;3.40;;;3.10;;
7969;SDS011;4030;52.362;9.206;2024-03-02T03:17:23;3.63;;;3.28;;
7969;SDS011;4030;52.362;9.206;2024-03-02T03:19:49;3.47;;;3.17;;
7969;SDS011;4030;52.362;9.206;2024-03-02T03:22:15;3.85;;;3.38;;
7969;SDS011;4030;52.362;9.206;2024-03-02T03:24:41;3.35;;;3.05;;
7969;SDS011;4030;52.362;9.206;2024-03-02T03:27:06;3.85;;;3.35;;
7969;SDS011;4030;52.362;9.206;2024-03-02T03:29:32;3.50;;;3.20;;
7969;SDS011;4030;52.362;9.206;2024-03-02T03:31:58;3.97;;;3.30;;
7969;SDS011;4030;52.362;9.206;2024-03-02T03:34:23;4.25;;;3.85;;
7969;SDS011;4030;52.362;9.206;2024-03-02T03:36:49;3.47;;;2.95;;
7969;SDS011;4030;52.362;9.206;2024-03-02T03:39:15;3.50;;;3.20;;
7969;SDS011;4030;52.362;9.206;2024-03-02T03:41:40;4.20;;;3.30;;
7969;SDS011;4030;52.362;9.206;2024-03-02T03:44:06;3.97;;;3.58;;
7969;SDS011;4030;52.362;9.206;2024-03-02T03:46:32;3.80;;;3.40;;
7969;SDS011;4030;52.362;9.206;2024-03-02T03:48:57;3.63;;;3.33;;
7969;SDS011;4030;52.362;9.206;2024-03-02T03:51:24;4.30;;;3.85;;
7969;SDS011;4030;52.362;9.206;2024-03-02T03:53:49;4.55;;;3.45;;
7969;SDS011;4030;52.362;9.206;2024-03-02T03:56:15;4.38;;;3.97;;
7969;SDS011;4030;52.362;9.206;2024-03-02T03:58:41;4.47;;;3.83;;
7969;SDS011;4030;52.362;9.206;2024-03-02T04:01:06;4.43;;;4.03;;
7969;SDS011;4030;52.362;9.206;2024-03-02T04:03:32;4.90;;;4.40;;
7969;SDS011;4030;52.362;9.206;2024-03-02T04:05:58;4.80;;;4.33;;
7969;SDS011;4030;52.362;9.206;2024-03-02T04:08:23;4.53;;;4.13;;
7969;SDS011;4030;52.362;9.206;2024-03-02T04:10:49;4.93;;;4.43;;
7969;SDS011;4030;52.362;9.206;2024-03-02T04:13:15;4.90;;;4.43;;
7969;SDS011;4030;52.362;9.206;2024-03-02T04:15:41;4.90;;;4.38;;
7969;SDS011;4030;52.362;9.206;2024-03-02T04:18:06;5.03;;;4.53;;
7969;SDS011;4030;52.362;9.206;2024-03-02T04:20:32;4.97;;;4.47;;
7969;SDS011;4030;52.362;9.206;2024-03-02T04:22:58;5.60;;;4.82;;
7969;SDS011;4030;52.362;9.206;2024-03-02T04:25:23;5.07;;;4.57;;
7969;SDS011;4030;52.362;9.206;2024-03-02T04:27:49;5.28;;;4.75;;
7969;SDS011;4030;52.362;9.206;2024-03-02T04:30:15;5.25;;;4.75;;
7969;SDS011;4030;52.362;9.206;2024-03-02T04:32:40;5.15;;;4.65;;
7969;SDS011;4030;52.362;9.206;2024-03-02T04:35:06;5.60;;;4.95;;
7969;SDS011;4030;52.362;9.206;2024-03-02T04:37:34;5.25;;;4.75;;
7969;SDS011;4030;52.362;9.206;2024-03-02T04:40:00;5.40;;;4.90;;
7969;SDS011;4030;52.362;9.206;2024-03-02T04:42:25;6.60;;;5.45;;
7969;SDS011;4030;52.362;9.206;2024-03-02T04:44:51;6.35;;;5.30;;
7969;SDS011;4030;52.362;9.206;2024-03-02T04:47:16;5.88;;;5.28;;
7969;SDS011;4030;52.362;9.206;2024-03-02T04:49:42;5.70;;;5.20;;
7969;SDS011;4030;52.362;9.206;2024-03-02T04:52:08;6.38;;;5.15;;
7969;SDS011;4030;52.362;9.206;2024-03-02T04:54:34;6.03;;;5.32;;
7969;SDS011;4030;52.362;9.206;2024-03-02T04:57:19;6.03;;;5.43;;
7969;SDS011;4030;52.362;9.206;2024-03-02T04:59:45;6.32;;;5.38;;
7969;SDS011;4030;52.362;9.206;2024-03-02T05:02:11;5.95;;;4.82;;
7969;SDS011;4030;52.362;9.206;2024-03-02T05:04:39;5.53;;;5.03;;
7969;SDS011;4030;52.362;9.206;2024-03-02T05:07:05;5.97;;;5.37;;
7969;SDS011;4030;52.362;9.206;2024-03-02T05:09:30;5.60;;;5.10;;
7969;SDS011;4030;52.362;9.206;2024-03-02T05:11:56;5.93;;;5.10;;
7969;SDS011;4030;52.362;9.206;2024-03-02T05:14:42;5.93;;;5.33;;
7969;SDS011;4030;52.362;9.206;2024-03-02T05:17:08;5.85;;;5.07;;
7969;SDS011;4030;52.362;9.206;2024-03-02T05:19:33;6.03;;;5.43;;
7969;SDS011;4030;52.362;9.206;2024-03-02T05:21:59;5.82;;;5.22;;
7969;SDS011;4030;52.362;9.206;2024-03-02T05:24:25;6.28;;;5.68;;
7969;SDS011;4030;52.362;9.206;2024-03-02T05:26:53;6.07;;;5.20;;
7969;SDS011;4030;52.362;9.206;2024-03-02T05:29:20;6.47;;;5.50;;
7969;SDS011;4030;52.362;9.206;2024-03-02T05:31:46;6.17;;;5.53;;
7969;SDS011;4030;52.362;9.206;2024-03-02T05:34:11;5.75;;;5.25;;
7969;SDS011;4030;52.362;9.206;2024-03-02T05:36:37;6.60;;;5.70;;
7969;SDS011;4030;52.362;9.206;2024-03-02T05:39:04;6.07;;;4.93;;
7969;SDS011;4030;52.362;9.206;2024-03-02T05:41:31;6.15;;;5.28;;
7969;SDS011;4030;52.362;9.206;2024-03-02T05:43:57;6.57;;;5.27;;
7969;SDS011;4030;52.362;9.206;2024-03-02T05:46:22;6.27;;;5.67;;
7969;SDS011;4030;52.362;9.206;2024-03-02T05:48:48;5.97;;;5.37;;
7969;SDS011;4030;52.362;9.206;2024-03-02T05:51:14;5.67;;;5.07;;
7969;SDS011;4030;52.362;9.206;2024-03-02T05:53:39;6.00;;;5.10;;
7969;SDS011;4030;52.362;9.206;2024-03-02T05:56:05;6.15;;;5.20;;
7969;SDS011;4030;52.362;9.206;2024-03-02T05:58:32;6.10;;;5.20;;
7969;SDS011;4030;52.362;9.206;2024-03-02T06:01:11;5.50;;;4.95;;
7969;SDS011;4030;52.362;9.206;2024-03-02T06:03:37;5.63;;;5.03;;
7969;SDS011;4030;52.362;9.206;2024-03-02T06:06:02;7.28;;;5.47;;
7969;SDS011;4030;52.362;9.206;2024-03-02T06:08:28;5.55;;;4.95;;
7969;SDS011;4030;52.362;9.206;2024-03-02T06:10:54;5.70;;;5.10;;
7969;SDS011;4030;52.362;9.206;2024-03-02T06:13:21;6.10;;;5.50;;
7969;SDS011;4030;52.362;9.206;2024-03-02T06:15:46;5.68;;;5.13;;
7969;SDS011;4030;52.362;9.206;2024-03-02T06:18:12;6.23;;;5.53;;
7969;SDS011;4030;52.362;9.206;2024-03-02T06:20:38;6.03;;;5.43;;
7969;SDS011;4030;52.362;9.206;2024-03-02T06:23:04;6.15;;;5.40;;
7969;SDS011;4030;52.362;9.206;2024-03-02T06:25:30;5.95;;;5.35;;
7969;SDS011;4030;52.362;9.206;2024-03-02T06:27:55;6.22;;;5.53;;
7969;SDS011;4030;52.362;9.206;2024-03-02T06:30:21;6.33;;;5.50;;
7969;SDS011;4030;52.362;9.206;2024-03-02T06:32:47;6.55;;;5.65;;
7969;SDS011;4030;52.362;9.206;2024-03-02T06:35:12;6.75;;;5.40;;
7969;SDS011;4030;52.362;9.206;2024-03-02T06:37:38;6.63;;;5.80;;
7969;SDS011;4030;52.362;9.206;2024-03-02T06:40:05;6.18;;;5.35;;
7969;SDS011;4030;52.362;9.206;2024-03-02T06:42:35;6.63;;;5.68;;
7969;SDS011;4030;52.362;9.206;2024-03-02T06:45:01;6.15;;;5.55;;
7969;SDS011;4030;52.362;9.206;2024-03-02T06:47:28;6.53;;;5.80;;
7969;SDS011;4030;52.362;9.206;2024-03-02T06:49:54;6.18;;;5.50;;
7969;SDS011;4030;52.362;9.206;2024-03-02T06:52:20;6.85;;;5.78;;
7969;SDS011;4030;52.362;9.206;2024-03-02T06:54:46;6.88;;;6.18;;
7969;SDS011;4030;52.362;9.206;2024-03-02T06:57:11;6.13;;;5.53;;
7969;SDS011;4030;52.362;9.206;2024-03-02T06:59:37;6.90;;;6.20;;
7969;SDS011;4030;52.362;9.206;2024-03-02T07:02:03;7.60;;;5.85;;
7969;SDS011;4030;52.362;9.206;2024-03-02T07:04:29;6.97;;;6.13;;
7969;SDS011;4030;52.362;9.206;2024-03-02T07:06:54;6.53;;;5.90;;
7969;SDS011;4030;52.362;9.206;2024-03-02T07:09:20;6.35;;;5.70;;
7969;SDS011;4030;52.362;9.206;2024-03-02T07:11:48;6.70;;;6.03;;
7969;SDS011;4030;52.362;9.206;2024-03-02T07:14:14;6.63;;;5.93;;
7969;SDS011;4030;52.362;9.206;2024-03-02T07:16:40;7.63;;;5.85;;
7969;SDS011;4030;52.362;9.206;2024-03-02T07:19:08;6.37;;;5.70;;
7969;SDS011;4030;52.362;9.206;2024-03-02T07:21:34;6.93;;;5.65;;
7969;SDS011;4030;52.362;9.206;2024-03-02T07:23:59;6.68;;;6.07;;
7969;SDS011;4030;52.362;9.206;2024-03-02T07:26:27;7.00;;;5.95;;
7969;SDS011;4030;52.362;9.206;2024-03-02T07:28:56;7.40;;;6.00;;
7969;SDS011;4030;52.362;9.206;2024-03-02T07:31:22;6.15;;;5.45;;
7969;SDS011;4030;52.362;9.206;2024-03-02T07:33:47;6.70;;;6.00;;
7969;SDS011;4030;52.362;9.206;2024-03-02T07:36:13;7.07;;;6.10;;
7969;SDS011;4030;52.362;9.206;2024-03-02T07:38:39;7.22;;;6.30;;
7969;SDS011;4030;52.362;9.206;2024-03-02T07:41:05;6.43;;;5.72;;
7969;SDS011;4030;52.362;9.206;2024-03-02T07:43:32;6.18;;;5.57;;
7969;SDS011;4030;52.362;9.206;2024-03-02T07:45:58;6.85;;;6.15;;
7969;SDS011;4030;52.362;9.206;2024-03-02T07:48:24;6.00;;;5.40;;
7969;SDS011;4030;52.362;9.206;2024-03-02T07:50:50;6.40;;;5.63;;
7969;SDS011;4030;52.362;9.206;2024-03-02T07:53:16;6.05;;;5.45;;
7969;SDS011;4030;52.362;9.206;2024-03-02T07:55:42;6.50;;;5.35;;
7969;SDS011;4030;52.362;9.206;2024-03-02T07:58:07;5.55;;;5.00;;
7969;SDS011;4030;52.362;9.206;2024-03-02T08:00:33;5.72;;;5.13;;
7969;SDS011;4030;52.362;9.206;2024-03-02T08:03:00;6.18;;;5.32;;
7969;SDS011;4030;52.362;9.206;2024-03-02T08:05:26;5.70;;;5.10;;
7969;SDS011;4030;52.362;9.206;2024-03-02T08:07:52;6.72;;;5.47;;
7969;SDS011;4030;52.362;9.206;2024-03-02T08:10:18;5.70;;;5.10;;
7969;SDS011;4030;52.362;9.206;2024-03-02T08:12:44;5.72;;;5.13;;
7969;SDS011;4030;52.362;9.206;2024-03-02T08:15:10;5.90;;;5.00;;
7969;SDS011;4030;52.362;9.206;2024-03-02T08:17:38;6.22;;;5.05;;
7969;SDS011;4030;52.362;9.206;2024-03-02T08:20:10;6.95;;;5.35;;
7969;SDS011;4030;52.362;9.206;2024-03-02T08:22:36;5.88;;;5.28;;
7969;SDS011;4030;52.362;9.206;2024-03-02T08:25:02;6.72;;;5.20;;
7969;SDS011;4030;52.362;9.206;2024-03-02T08:27:29;6.13;;;5.25;;
7969;SDS011;4030;52.362;9.206;2024-03-02T08:29:54;5.75;;;5.00;;
7969;SDS011;4030;52.362;9.206;2024-03-02T08:32:20;7.03;;;5.72;;
7969;SDS011;4030;52.362;9.206;2024-03-02T08:34:46;6.13;;;5.10;;
7969;SDS011;4030;52.362;9.206;2024-03-02T08:37:11;5.72;;;5.13;;
7969;SDS011;4030;52.362;9.206;2024-03-02T08:39:37;5.97;;;5.25;;
7969;SDS011;4030;52.362;9.206;2024-03-02T08:42:03;6.18;;;5.53;;
7969;SDS011;4030;52.362;9.206;2024-03-02T08:44:29;5.97;;;5.13;;
7969;SDS011;4030;52.362;9.206;2024-03-02T08:46:55;7.38;;;5.22;;
7969;SDS011;4030;52.362;9.206;2024-03-02T08:49:21;6.50;;;5.82;;
7969;SDS011;4030;52.362;9.206;2024-03-02T08:51:46;7.47;;;5.82;;
7969;SDS011;4030;52.362;9.206;2024-03-02T08:54:19;5.93;;;5.32;;
7969;SDS011;4030;52.362;9.206;2024-03-02T08:56:46;6.38;;;5.60;;
7969;SDS011;4030;52.362;9.206;2024-03-02T08:59:13;6.35;;;5.75;;
7969;SDS011;4030;52.362;9.206;2024-03-02T09:01:39;6.65;;;5.72;;
7969;SDS011;4030;52.362;9.206;2024-03-02T09:04:06;7.32;;;5.80;;
7969;SDS011;4030;52.362;9.206;2024-03-02T09:06:35;5.72;;;5.13;;
7969;SDS011;4030;52.362;9.206;2024-03-02T09:09:01;5.95;;;5.35;;
7969;SDS011;4030;52.362;9.206;2024-03-02T09:11:27;6.30;;;5.53;;
7969;SDS011;4030;52.362;9.206;2024-03-02T09:13:53;6.68;;;5.03;;
7969;SDS011;4030;52.362;9.206;2024-03-02T09:16:19;7.38;;;5.88;;
7969;SDS011;4030;52.362;9.206;2024-03-02T09:18:45;7.20;;;5.30;;
7969;SDS011;4030;52.362;9.206;2024-03-02T09:21:11;6.18;;;5.50;;
7969;SDS011;4030;52.362;9.206;2024-03-02T09:23:36;5.10;;;4.60;;
7969;SDS011;4030;52.362;9.206;2024-03-02T09:26:03;6.03;;;5.00;;
7969;SDS011;4030;52.362;9.206;2024-03-02T09:28:29;5.93;;;5.20;;
7969;SDS011;4030;52.362;9.206;2024-03-02T09:30:54;5.80;;;5.13;;
7969;SDS011;4030;52.362;9.206;2024-03-02T09:33:20;7.40;;;4.95;;
7969;SDS011;4030;52.362;9.206;2024-03-02T09:35:46;5.70;;;4.93;;
7969;SDS011;4030;52.362;9.206;2024-03-02T09:38:13;4.68;;;4.18;;
7969;SDS011;4030;52.362;9.206;2024-03-02T09:40:39;5.25;;;4.75;;
7969;SDS011;4030;52.362;9.206;2024-03-02T09:43:07;4.88;;;4.38;;
7969;SDS011;4030;52.362;9.206;2024-03-02T09:45:33;4.30;;;3.90;;
7969;SDS011;4030;52.362;9.206;2024-03-02T09:47:59;4.22;;;3.83;;
7969;SDS011;4030;52.362;9.206;2024-03-02T09:50:25;4.68;;;3.72;;
7969;SDS011;4030;52.362;9.206;2024-03-02T09:52:50;4.28;;;3.50;;
7969;SDS011;4030;52.362;9.206;2024-03-02T09:55:19;4.28;;;3.50;;
7969;SDS011;4030;52.362;9.206;2024-03-02T09:57:46;3.80;;;3.33;;
7969;SDS011;4030;52.362;9.206;2024-03-02T10:00:13;3.95;;;3.50;;
7969;SDS011;4030;52.362;9.206;2024-03-02T10:02:42;3.58;;;3.28;;
7969;SDS011;4030;52.362;9.206;2024-03-02T10:05:08;3.42;;;3.10;;
7969;SDS011;4030;52.362;9.206;2024-03-02T10:07:35;4.07;;;3.35;;
7969;SDS011;4030;52.362;9.206;2024-03-02T10:10:12;3.75;;;3.45;;
7969;SDS011;4030;52.362;9.206;2024-03-02T10:12:39;3.75;;;3.30;;
7969;SDS011;4030;52.362;9.206;2024-03-02T10:15:05;4.15;;;3.28;;
7969;SDS011;4030;52.362;9.206;2024-03-02T10:17:32;3.78;;;3.03;;
7969;SDS011;4030;52.362;9.206;2024-03-02T10:19:58;4.55;;;3.65;;
7969;SDS011;4030;52.362;9.206;2024-03-02T10:22:23;3.50;;;3.17;;
7969;SDS011;4030;52.362;9.206;2024-03-02T10:24:50;3.45;;;3.03;;
7969;SDS011;4030;52.362;9.206;2024-03-02T10:27:16;3.22;;;2.80;;
7969;SDS011;4030;52.362;9.206;2024-03-02T10:29:48;3.13;;;2.83;;
7969;SDS011;4030;52.362;9.206;2024-03-02T10:32:15;3.47;;;3.17;;
7969;SDS011;4030;52.362;9.206;2024-03-02T10:34:42;3.85;;;3.20;;
7969;SDS011;4030;52.362;9.206;2024-03-02T10:37:12;3.80;;;3.00;;
7969;SDS011;4030;52.362;9.206;2024-03-02T10:39:39;3.10;;;2.67;;
7969;SDS011;4030;52.362;9.206;2024-03-02T10:42:05;4.00;;;2.88;;
7969;SDS011;4030;52.362;9.206;2024-03-02T10:44:32;3.10;;;2.80;;
7969;SDS011;4030;52.362;9.206;2024-03-02T10:47:03;2.90;;;2.60;;
7969;SDS011;4030;52.362;9.206;2024-03-02T10:49:31;3.63;;;2.63;;
7969;SDS011;4030;52.362;9.206;2024-03-02T10:52:00;3.65;;;2.80;;
7969;SDS011;4030;52.362;9.206;2024-03-02T10:54:26;2.40;;;2.20;;
7969;SDS011;4030;52.362;9.206;2024-03-02T10:56:55;3.55;;;2.60;;
7969;SDS011;4030;52.362;9.206;2024-03-02T10:59:27;2.58;;;2.20;;
7969;SDS011;4030;52.362;9.206;2024-03-02T11:01:58;3.28;;;2.30;;
7969;SDS011;4030;52.362;9.206;2024-03-02T11:04:26;2.85;;;2.03;;
7969;SDS011;4030;52.362;9.206;2024-03-02T11:07:00;2.65;;;2.30;;
7969;SDS011;4030;52.362;9.206;2024-03-02T11:09:33;3.92;;;2.20;;
7969;SDS011;4030;52.362;9.206;2024-03-02T11:12:03;2.38;;;2.17;;
7969;SDS011;4030;52.362;9.206;2024-03-02T11:14:44;2.30;;;1.92;;
7969;SDS011;4030;52.362;9.206;2024-03-02T11:17:10;2.08;;;1.88;;
7969;SDS011;4030;52.362;9.206;2024-03-02T11:19:40;2.28;;;1.98;;
7969;SDS011;4030;52.362;9.206;2024-03-02T11:22:07;2.35;;;2.03;;
7969;SDS011;4030;52.362;9.206;2024-03-02T11:24:33;2.47;;;1.98;;
7969;SDS011;4030;52.362;9.206;2024-03-02T11:27:00;2.38;;;1.70;;
7969;SDS011;4030;52.362;9.206;2024-03-02T11:32:03;2.30;;;1.58;;
7969;SDS011;4030;52.362;9.206;2024-03-02T11:34:46;2.45;;;1.73;;
7969;SDS011;4030;52.362;9.206;2024-03-02T11:37:14;2.03;;;1.77;;
7969;SDS011;4030;52.362;9.206;2024-03-02T11:39:50;2.30;;;1.70;;
7969;SDS011;4030;52.362;9.206;2024-03-02T11:42:16;2.35;;;1.73;;
7969;SDS011;4030;52.362;9.206;2024-03-02T11:44:44;2.10;;;1.60;;
7969;SDS011;4030;52.362;9.206;2024-03-02T11:47:12;2.38;;;1.77;;
7969;SDS011;4030;52.362;9.206;2024-03-02T11:49:49;1.73;;;1.50;;
7969;SDS011;4030;52.362;9.206;2024-03-02T11:52:19;1.50;;;1.30;;
7969;SDS011;4030;52.362;9.206;2024-03-02T11:54:47;1.88;;;1.25;;
7969;SDS011;4030;52.362;9.206;2024-03-02T11:57:20;1.98;;;1.38;;
7969;SDS011;4030;52.362;9.206;2024-03-02T11:59:52;1.73;;;1.20;;
7969;SDS011;4030;52.362;9.206;2024-03-02T12:02:19;1.70;;;1.60;;
7969;SDS011;4030;52.362;9.206;2024-03-02T12:04:46;1.88;;;1.48;;
7969;SDS011;4030;52.362;9.206;2024-03-02T12:07:20;1.77;;;1.40;;
7969;SDS011;4030;52.362;9.206;2024-03-02T12:09:49;1.40;;;1.30;;
7969;SDS011;4030;52.362;9.206;2024-03-02T12:12:25;1.77;;;1.30;;
7969;SDS011;4030;52.362;9.206;2024-03-02T12:14:52;2.30;;;1.30;;
7969;SDS011;4030;52.362;9.206;2024-03-02T12:17:20;1.75;;;1.38;;
7969;SDS011;4030;52.362;9.206;2024-03-02T12:19:47;1.40;;;1.30;;
7969;SDS011;4030;52.362;9.206;2024-03-02T12:22:13;2.13;;;1.60;;
7969;SDS011;4030;52.362;9.206;2024-03-02T12:24:39;1.48;;;1.20;;
7969;SDS011;4030;52.362;9.206;2024-03-02T12:27:07;1.90;;;1.42;;
7969;SDS011;4030;52.362;9.206;2024-03-02T12:29:33;2.15;;;1.50;;
7969;SDS011;4030;52.362;9.206;2024-03-02T12:31:59;1.50;;;1.30;;
7969;SDS011;4030;52.362;9.206;2024-03-02T12:34:27;1.83;;;1.40;;
7969;SDS011;4030;52.362;9.206;2024-03-02T12:36:53;1.95;;;1.65;;
7969;SDS011;4030;52.362;9.206;2024-03-02T12:39:18;2.40;;;1.83;;
7969;SDS011;4030;52.362;9.206;2024-03-02T12:41:48;1.90;;;1.70;;
7969;SDS011;4030;52.362;9.206;2024-03-02T12:44:16;2.00;;;1.60;;
7969;SDS011;4030;52.362;9.206;2024-03-02T12:46:43;2.25;;;1.75;;
7969;SDS011;4030;52.362;9.206;2024-03-02T12:49:09;2.20;;;1.63;;
7969;SDS011;4030;52.362;9.206;2024-03-02T12:51:37;2.13;;;1.42;;
7969;SDS011;4030;52.362;9.206;2024-03-02T12:54:10;1.75;;;1.40;;
7969;SDS011;4030;52.362;9.206;2024-03-02T12:56:40;1.80;;;1.42;;
7969;SDS011;4030;52.362;9.206;2024-03-02T12:59:10;1.48;;;1.05;;
7969;SDS011;4030;52.362;9.206;2024-03-02T13:01:53;1.38;;;1.10;;
7969;SDS011;4030;52.362;9.206;2024-03-02T13:04:23;1.58;;;1.27;;
7969;SDS011;4030;52.362;9.206;2024-03-02T13:06:51;1.77;;;1.33;;
7969;SDS011;4030;52.362;9.206;2024-03-02T13:09:17;1.63;;;1.30;;
7969;SDS011;4030;52.362;9.206;2024-03-02T13:11:43;1.83;;;1.27;;
7969;SDS011;4030;52.362;9.206;2024-03-02T13:14:10;1.60;;;1.40;;
7969;SDS011;4030;52.362;9.206;2024-03-02T13:16:39;1.77;;;1.20;;
7969;SDS011;4030;52.362;9.206;2024-03-02T13:19:09;1.52;;;1.10;;
7969;SDS011;4030;52.362;9.206;2024-03-02T13:21:36;1.23;;;1.10;;
7969;SDS011;4030;52.362;9.206;2024-03-02T13:24:02;1.05;;;0.88;;
7969;SDS011;4030;52.362;9.206;2024-03-02T13:26:29;1.75;;;1.20;;
7969;SDS011;4030;52.362;9.206;2024-03-02T13:28:55;1.80;;;1.33;;
7969;SDS011;4030;52.362;9.206;2024-03-02T13:31:21;1.08;;;0.98;;
7969;SDS011;4030;52.362;9.206;2024-03-02T13:33:47;1.10;;;1.00;;
7969;SDS011;4030;52.362;9.206;2024-03-02T13:36:13;1.00;;;0.90;;
7969;SDS011;4030;52.362;9.206;2024-03-02T13:38:38;1.55;;;1.05;;
7969;SDS011;4030;52.362;9.206;2024-03-02T13:41:04;1.35;;;1.20;;
7969;SDS011;4030;52.362;9.206;2024-03-02T13:43:30;1.70;;;1.17;;
7969;SDS011;4030;52.362;9.206;2024-03-02T13:46:00;1.08;;;0.98;;
7969;SDS011;4030;52.362;9.206;2024-03-02T13:48:27;1.35;;;1.00;;
7969;SDS011;4030;52.362;9.206;2024-03-02T13:50:53;1.27;;;0.95;;
7969;SDS011;4030;52.362;9.206;2024-03-02T13:53:19;1.63;;;0.95;;
7969;SDS011;4030;52.362;9.206;2024-03-02T13:55:45;0.90;;;0.90;;
7969;SDS011;4030;52.362;9.206;2024-03-02T13:58:11;2.03;;;1.08;;
7969;SDS011;4030;52.362;9.206;2024-03-02T14:00:37;1.20;;;0.90;;
7969;SDS011;4030;52.362;9.206;2024-03-02T14:03:04;1.02;;;0.90;;
7969;SDS011;4030;52.362;9.206;2024-03-02T14:05:31;1.05;;;0.90;;
7969;SDS011;4030;52.362;9.206;2024-03-02T14:07:57;1.30;;;0.93;;
7969;SDS011;4030;52.362;9.206;2024-03-02T14:10:24;1.25;;;1.00;;
7969;SDS011;4030;52.362;9.206;2024-03-02T14:12:49;1.30;;;0.90;;
7969;SDS011;4030;52.362;9.206;2024-03-02T14:15:15;1.17;;;0.90;;
7969;SDS011;4030;52.362;9.206;2024-03-02T14:17:41;1.17;;;1.05;;
7969;SDS011;4030;52.362;9.206;2024-03-02T14:20:07;1.10;;;1.00;;
7969;SDS011;4030;52.362;9.206;2024-03-02T14:22:36;1.48;;;1.00;;
7969;SDS011;4030;52.362;9.206;2024-03-02T14:25:02;1.35;;;1.10;;
7969;SDS011;4030;52.362;9.206;2024-03-02T14:27:28;1.00;;;0.90;;
7969;SDS011;4030;52.362;9.206;2024-03-02T14:29:54;1.10;;;1.00;;
7969;SDS011;4030;52.362;9.206;2024-03-02T14:32:20;0.90;;;0.90;;
7969;SDS011;4030;52.362;9.206;2024-03-02T14:34:46;1.23;;;1.00;;
7969;SDS011;4030;52.362;9.206;2024-03-02T14:37:12;1.20;;;1.08;;
7969;SDS011;4030;52.362;9.206;2024-03-02T14:39:39;1.65;;;0.80;;
7969;SDS011;4030;52.362;9.206;2024-03-02T14:42:05;1.90;;;1.00;;
7969;SDS011;4030;52.362;9.206;2024-03-02T14:44:32;1.20;;;1.02;;
7969;SDS011;4030;52.362;9.206;2024-03-02T14:46:59;1.38;;;0.77;;
7969;SDS011;4030;52.362;9.206;2024-03-02T14:49:29;0.80;;;0.80;;
7969;SDS011;4030;52.362;9.206;2024-03-02T14:51:55;0.73;;;0.70;;
7969;SDS011;4030;52.362;9.206;2024-03-02T14:54:21;0.95;;;0.90;;
7969;SDS011;4030;52.362;9.206;2024-03-02T14:56:46;1.40;;;1.10;;
7969;SDS011;4030;52.362;9.206;2024-03-02T14:59:13;0.85;;;0.85;;
7969;SDS011;4030;52.362;9.206;2024-03-02T15:01:38;1.55;;;1.00;;
7969;SDS011;4030;52.362;9.206;2024-03-02T15:04:04;1.67;;;1.00;;
7969;SDS011;4030;52.362;9.206;2024-03-02T15:06:30;1.52;;;1.10;;
7969;SDS011;4030;52.362;9.206;2024-03-02T15:08:56;0.80;;;0.75;;
7969;SDS011;4030;52.362;9.206;2024-03-02T15:11:22;1.00;;;0.90;;
7969;SDS011;4030;52.362;9.206;2024-03-02T15:13:48;0.82;;;0.82;;
7969;SDS011;4030;52.362;9.206;2024-03-02T15:16:13;1.13;;;1.00;;
7969;SDS011;4030;52.362;9.206;2024-03-02T15:18:39;1.10;;;0.93;;
7969;SDS011;4030;52.362;9.206;2024-03-02T15:21:06;1.40;;;0.90;;
7969;SDS011;4030;52.362;9.206;2024-03-02T15:23:31;1.13;;;0.90;;